WMKK/KUL METAR and TAF weather

Enter ICAO airport designator
Station Type Date Time Source
WMKK METAR 2019/10/18 10:30 UTC NOAA

WMKK 181030Z 36003KT 310V060 9999 FEW017CB 27/25 Q1008 NOSIG


Station Type Date Time Source
WMKK Decoded METAR 2019/10/18 10:30 UTC NOAA

Sepang/KL International Airport, Malaysia (WMKK) 02-44N 101-42E 22M
Oct 18, 2019 - 06:30 AM EDT / 2019.10.18 1030 UTC
Wind: from the N (360 degrees) at 3 MPH (3 KT) (direction variable):0
Visibility: greater than 7 mile(s):0
Sky conditions: mostly clear
Weather: Cumulonimbus clouds observed
Temperature: 80 F (27 C)
Dew Point: 77 F (25 C)
Relative Humidity: 88%
Pressure (altimeter): 29.77 in. Hg (1008 hPa)
ob: WMKK 181030Z 36003KT 310V060 9999 FEW017CB 27/25 Q1008 NOSIG
cycle: 10

Station Type Date Time Source
WMKK TAF 2019/10/18 06:09 UTC NOAA

TAF WMKK 180500Z 1806/1912 30006KT 9999 FEW018
TEMPO 1807/1812 19008KT 4000 TSRA FEW010 FEW017CB SCT020 PROB30
TEMPO 1820/1900 5000 BR FEW008

Example: see airport list